sensor_id;sensor_type;location;lat;lon;timestamp;P1;durP1;ratioP1;P2;durP2;ratioP2
17197;SDS011;8715;51.010;6.812;2024-01-07T00:02:29;663.17;;;632.25;;
17197;SDS011;8715;51.010;6.812;2024-01-07T00:05:14;670.67;;;639.92;;
17197;SDS011;8715;51.010;6.812;2024-01-07T00:07:59;646.17;;;615.70;;
17197;SDS011;8715;51.010;6.812;2024-01-07T00:10:44;658.60;;;627.85;;
17197;SDS011;8715;51.010;6.812;2024-01-07T00:13:31;657.90;;;626.90;;
17197;SDS011;8715;51.010;6.812;2024-01-07T00:16:16;660.92;;;630.42;;
17197;SDS011;8715;51.010;6.812;2024-01-07T00:19:01;656.42;;;626.00;;
17197;SDS011;8715;51.010;6.812;2024-01-07T00:21:46;602.58;;;574.13;;
17197;SDS011;8715;51.010;6.812;2024-01-07T00:24:31;662.92;;;632.38;;
17197;SDS011;8715;51.010;6.812;2024-01-07T00:27:17;654.05;;;623.63;;
17197;SDS011;8715;51.010;6.812;2024-01-07T00:30:03;649.60;;;619.75;;
17197;SDS011;8715;51.010;6.812;2024-01-07T00:32:48;660.88;;;630.70;;
17197;SDS011;8715;51.010;6.812;2024-01-07T00:35:35;645.80;;;615.92;;
17197;SDS011;8715;51.010;6.812;2024-01-07T00:38:20;647.30;;;618.83;;
17197;SDS011;8715;51.010;6.812;2024-01-07T00:41:05;636.22;;;607.50;;
17197;SDS011;8715;51.010;6.812;2024-01-07T00:43:50;662.42;;;632.72;;
17197;SDS011;8715;51.010;6.812;2024-01-07T00:46:36;603.85;;;576.40;;
17197;SDS011;8715;51.010;6.812;2024-01-07T00:49:21;653.28;;;623.60;;
17197;SDS011;8715;51.010;6.812;2024-01-07T00:52:06;656.67;;;626.58;;
17197;SDS011;8715;51.010;6.812;2024-01-07T00:54:51;655.88;;;626.85;;
17197;SDS011;8715;51.010;6.812;2024-01-07T00:57:36;657.13;;;628.15;;
17197;SDS011;8715;51.010;6.812;2024-01-07T01:00:21;663.08;;;634.35;;
17197;SDS011;8715;51.010;6.812;2024-01-07T01:03:08;651.70;;;623.40;;
17197;SDS011;8715;51.010;6.812;2024-01-07T01:05:53;669.40;;;640.50;;
17197;SDS011;8715;51.010;6.812;2024-01-07T01:08:38;668.15;;;639.08;;
17197;SDS011;8715;51.010;6.812;2024-01-07T01:11:24;622.33;;;595.60;;
17197;SDS011;8715;51.010;6.812;2024-01-07T01:14:09;664.70;;;635.65;;
17197;SDS011;8715;51.010;6.812;2024-01-07T01:16:54;655.42;;;627.78;;
17197;SDS011;8715;51.010;6.812;2024-01-07T01:19:40;668.47;;;639.97;;
17197;SDS011;8715;51.010;6.812;2024-01-07T01:22:25;662.90;;;634.97;;
17197;SDS011;8715;51.010;6.812;2024-01-07T01:25:10;647.85;;;620.47;;
17197;SDS011;8715;51.010;6.812;2024-01-07T01:27:55;658.80;;;631.13;;
17197;SDS011;8715;51.010;6.812;2024-01-07T01:30:41;665.78;;;637.53;;
17197;SDS011;8715;51.010;6.812;2024-01-07T01:33:26;666.03;;;638.10;;
17197;SDS011;8715;51.010;6.812;2024-01-07T01:36:12;671.33;;;642.97;;
17197;SDS011;8715;51.010;6.812;2024-01-07T01:38:57;665.65;;;637.60;;
17197;SDS011;8715;51.010;6.812;2024-01-07T01:41:42;655.00;;;627.60;;
17197;SDS011;8715;51.010;6.812;2024-01-07T01:44:27;670.85;;;642.25;;
17197;SDS011;8715;51.010;6.812;2024-01-07T01:47:12;658.08;;;630.50;;
17197;SDS011;8715;51.010;6.812;2024-01-07T01:49:58;662.70;;;633.80;;
17197;SDS011;8715;51.010;6.812;2024-01-07T01:52:44;663.45;;;635.47;;
17197;SDS011;8715;51.010;6.812;2024-01-07T01:55:29;675.17;;;646.55;;
17197;SDS011;8715;51.010;6.812;2024-01-07T01:58:14;658.75;;;631.20;;
17197;SDS011;8715;51.010;6.812;2024-01-07T02:01:01;661.45;;;633.72;;
17197;SDS011;8715;51.010;6.812;2024-01-07T02:03:48;659.40;;;631.53;;
17197;SDS011;8715;51.010;6.812;2024-01-07T02:06:33;669.78;;;641.42;;
17197;SDS011;8715;51.010;6.812;2024-01-07T02:09:19;667.30;;;639.30;;
17197;SDS011;8715;51.010;6.812;2024-01-07T02:12:06;658.38;;;630.42;;
17197;SDS011;8715;51.010;6.812;2024-01-07T02:14:55;617.22;;;591.00;;
17197;SDS011;8715;51.010;6.812;2024-01-07T02:17:40;643.80;;;616.45;;
17197;SDS011;8715;51.010;6.812;2024-01-07T02:20:25;672.67;;;643.70;;
17197;SDS011;8715;51.010;6.812;2024-01-07T02:23:09;670.10;;;641.65;;
17197;SDS011;8715;51.010;6.812;2024-01-07T02:25:56;657.47;;;629.60;;
17197;SDS011;8715;51.010;6.812;2024-01-07T02:28:41;665.20;;;637.05;;
17197;SDS011;8715;51.010;6.812;2024-01-07T02:31:26;658.90;;;631.08;;
17197;SDS011;8715;51.010;6.812;2024-01-07T02:34:11;680.35;;;651.83;;
17197;SDS011;8715;51.010;6.812;2024-01-07T02:36:56;617.67;;;590.95;;
17197;SDS011;8715;51.010;6.812;2024-01-07T02:39:41;668.70;;;640.00;;
17197;SDS011;8715;51.010;6.812;2024-01-07T02:42:29;619.78;;;592.75;;
17197;SDS011;8715;51.010;6.812;2024-01-07T02:45:14;662.92;;;634.58;;
17197;SDS011;8715;51.010;6.812;2024-01-07T02:47:59;663.17;;;634.72;;
17197;SDS011;8715;51.010;6.812;2024-01-07T02:50:44;660.00;;;632.40;;
17197;SDS011;8715;51.010;6.812;2024-01-07T02:53:29;672.05;;;643.75;;
17197;SDS011;8715;51.010;6.812;2024-01-07T02:56:14;662.17;;;634.40;;
17197;SDS011;8715;51.010;6.812;2024-01-07T02:59:01;654.40;;;627.13;;
17197;SDS011;8715;51.010;6.812;2024-01-07T03:01:45;610.60;;;584.97;;
17197;SDS011;8715;51.010;6.812;2024-01-07T03:04:31;666.97;;;639.08;;
17197;SDS011;8715;51.010;6.812;2024-01-07T03:07:16;646.75;;;619.35;;
17197;SDS011;8715;51.010;6.812;2024-01-07T03:10:01;666.47;;;638.05;;
17197;SDS011;8715;51.010;6.812;2024-01-07T03:12:46;653.75;;;626.22;;
17197;SDS011;8715;51.010;6.812;2024-01-07T03:15:33;650.33;;;623.40;;
17197;SDS011;8715;51.010;6.812;2024-01-07T03:18:18;664.10;;;636.55;;
17197;SDS011;8715;51.010;6.812;2024-01-07T03:21:03;656.00;;;628.17;;
17197;SDS011;8715;51.010;6.812;2024-01-07T03:23:48;657.20;;;629.38;;
17197;SDS011;8715;51.010;6.812;2024-01-07T03:26:33;657.00;;;629.15;;
17197;SDS011;8715;51.010;6.812;2024-01-07T03:29:18;662.00;;;633.67;;
17197;SDS011;8715;51.010;6.812;2024-01-07T03:32:05;660.55;;;632.85;;
17197;SDS011;8715;51.010;6.812;2024-01-07T03:34:50;663.65;;;635.97;;
17197;SDS011;8715;51.010;6.812;2024-01-07T03:37:35;645.55;;;618.22;;
17197;SDS011;8715;51.010;6.812;2024-01-07T03:40:20;653.33;;;625.65;;
17197;SDS011;8715;51.010;6.812;2024-01-07T03:43:06;669.20;;;641.03;;
17197;SDS011;8715;51.010;6.812;2024-01-07T03:45:51;631.20;;;604.45;;
17197;SDS011;8715;51.010;6.812;2024-01-07T03:48:37;650.38;;;622.88;;
17197;SDS011;8715;51.010;6.812;2024-01-07T03:51:22;655.83;;;627.60;;
17197;SDS011;8715;51.010;6.812;2024-01-07T03:54:07;656.28;;;628.35;;
17197;SDS011;8715;51.010;6.812;2024-01-07T03:56:52;609.30;;;583.40;;
17197;SDS011;8715;51.010;6.812;2024-01-07T03:59:37;647.72;;;619.88;;
17197;SDS011;8715;51.010;6.812;2024-01-07T04:02:22;657.95;;;629.92;;
17197;SDS011;8715;51.010;6.812;2024-01-07T04:05:09;613.90;;;588.05;;
17197;SDS011;8715;51.010;6.812;2024-01-07T04:07:55;649.35;;;621.60;;
17197;SDS011;8715;51.010;6.812;2024-01-07T04:10:39;651.58;;;624.22;;
17197;SDS011;8715;51.010;6.812;2024-01-07T04:13:25;664.42;;;636.38;;
17197;SDS011;8715;51.010;6.812;2024-01-07T04:16:15;653.08;;;624.75;;
17197;SDS011;8715;51.010;6.812;2024-01-07T04:19:00;654.58;;;626.63;;
17197;SDS011;8715;51.010;6.812;2024-01-07T04:21:47;660.20;;;630.58;;
17197;SDS011;8715;51.010;6.812;2024-01-07T04:24:32;651.33;;;623.60;;
17197;SDS011;8715;51.010;6.812;2024-01-07T04:27:16;656.88;;;628.08;;
17197;SDS011;8715;51.010;6.812;2024-01-07T04:30:02;647.75;;;619.50;;
17197;SDS011;8715;51.010;6.812;2024-01-07T04:32:47;651.03;;;623.03;;
17197;SDS011;8715;51.010;6.812;2024-01-07T04:35:32;650.60;;;622.70;;
17197;SDS011;8715;51.010;6.812;2024-01-07T04:38:19;647.67;;;620.20;;
17197;SDS011;8715;51.010;6.812;2024-01-07T04:41:04;644.50;;;616.22;;
17197;SDS011;8715;51.010;6.812;2024-01-07T04:43:51;609.20;;;582.88;;
17197;SDS011;8715;51.010;6.812;2024-01-07T04:46:37;644.60;;;616.58;;
17197;SDS011;8715;51.010;6.812;2024-01-07T04:49:22;655.47;;;626.97;;
17197;SDS011;8715;51.010;6.812;2024-01-07T04:52:07;662.10;;;633.63;;
17197;SDS011;8715;51.010;6.812;2024-01-07T04:54:54;638.35;;;611.53;;
17197;SDS011;8715;51.010;6.812;2024-01-07T04:57:39;637.30;;;610.42;;
17197;SDS011;8715;51.010;6.812;2024-01-07T05:00:24;653.22;;;625.28;;
17197;SDS011;8715;51.010;6.812;2024-01-07T05:03:09;661.42;;;633.70;;
17197;SDS011;8715;51.010;6.812;2024-01-07T05:05:55;642.10;;;615.22;;
17197;SDS011;8715;51.010;6.812;2024-01-07T05:08:40;646.95;;;619.65;;
17197;SDS011;8715;51.010;6.812;2024-01-07T05:11:26;645.55;;;618.22;;
17197;SDS011;8715;51.010;6.812;2024-01-07T05:14:11;652.65;;;624.97;;
17197;SDS011;8715;51.010;6.812;2024-01-07T05:16:56;637.42;;;609.95;;
17197;SDS011;8715;51.010;6.812;2024-01-07T05:19:41;643.83;;;616.53;;
17197;SDS011;8715;51.010;6.812;2024-01-07T05:22:26;655.58;;;627.85;;
17197;SDS011;8715;51.010;6.812;2024-01-07T05:25:11;644.20;;;616.58;;
17197;SDS011;8715;51.010;6.812;2024-01-07T05:27:58;643.13;;;616.03;;
17197;SDS011;8715;51.010;6.812;2024-01-07T05:30:43;605.42;;;579.97;;
17197;SDS011;8715;51.010;6.812;2024-01-07T05:33:28;645.50;;;617.55;;
17197;SDS011;8715;51.010;6.812;2024-01-07T05:36:13;632.70;;;605.88;;
17197;SDS011;8715;51.010;6.812;2024-01-07T05:38:58;590.90;;;565.20;;
17197;SDS011;8715;51.010;6.812;2024-01-07T05:41:43;633.83;;;606.38;;
17197;SDS011;8715;51.010;6.812;2024-01-07T05:44:30;639.40;;;612.40;;
17197;SDS011;8715;51.010;6.812;2024-01-07T05:47:15;631.33;;;604.22;;
17197;SDS011;8715;51.010;6.812;2024-01-07T05:50:00;634.28;;;607.35;;
17197;SDS011;8715;51.010;6.812;2024-01-07T05:52:45;633.13;;;606.72;;
17197;SDS011;8715;51.010;6.812;2024-01-07T05:55:30;636.17;;;608.78;;
17197;SDS011;8715;51.010;6.812;2024-01-07T05:58:15;629.85;;;603.50;;
17197;SDS011;8715;51.010;6.812;2024-01-07T06:01:02;632.35;;;605.90;;
17197;SDS011;8715;51.010;6.812;2024-01-07T06:03:47;630.92;;;604.75;;
17197;SDS011;8715;51.010;6.812;2024-01-07T06:06:32;584.95;;;560.35;;
17197;SDS011;8715;51.010;6.812;2024-01-07T06:09:18;641.80;;;614.72;;
17197;SDS011;8715;51.010;6.812;2024-01-07T06:12:03;631.72;;;605.20;;
17197;SDS011;8715;51.010;6.812;2024-01-07T06:14:48;617.42;;;592.00;;
17197;SDS011;8715;51.010;6.812;2024-01-07T06:17:35;620.78;;;594.70;;
17197;SDS011;8715;51.010;6.812;2024-01-07T06:20:20;634.35;;;607.88;;
17197;SDS011;8715;51.010;6.812;2024-01-07T06:23:05;595.08;;;569.97;;
17197;SDS011;8715;51.010;6.812;2024-01-07T06:25:50;623.75;;;597.67;;
17197;SDS011;8715;51.010;6.812;2024-01-07T06:28:35;623.97;;;598.17;;
17197;SDS011;8715;51.010;6.812;2024-01-07T06:31:20;627.72;;;601.80;;
17197;SDS011;8715;51.010;6.812;2024-01-07T06:34:07;616.83;;;591.33;;
17197;SDS011;8715;51.010;6.812;2024-01-07T06:36:52;607.63;;;582.05;;
17197;SDS011;8715;51.010;6.812;2024-01-07T06:39:37;615.05;;;589.28;;
17197;SDS011;8715;51.010;6.812;2024-01-07T06:42:22;634.22;;;607.58;;
17197;SDS011;8715;51.010;6.812;2024-01-07T06:45:07;604.58;;;579.35;;
17197;SDS011;8715;51.010;6.812;2024-01-07T06:47:52;624.50;;;598.20;;
17197;SDS011;8715;51.010;6.812;2024-01-07T06:50:39;624.63;;;598.08;;
17197;SDS011;8715;51.010;6.812;2024-01-07T06:53:25;622.13;;;595.75;;
17197;SDS011;8715;51.010;6.812;2024-01-07T06:56:10;616.85;;;590.80;;
17197;SDS011;8715;51.010;6.812;2024-01-07T06:58:55;622.22;;;595.97;;
17197;SDS011;8715;51.010;6.812;2024-01-07T07:01:40;620.70;;;594.45;;
17197;SDS011;8715;51.010;6.812;2024-01-07T07:04:25;627.67;;;600.97;;
17197;SDS011;8715;51.010;6.812;2024-01-07T07:07:11;614.80;;;589.03;;
17197;SDS011;8715;51.010;6.812;2024-01-07T07:09:56;625.47;;;599.08;;
17197;SDS011;8715;51.010;6.812;2024-01-07T07:12:41;628.42;;;601.65;;
17197;SDS011;8715;51.010;6.812;2024-01-07T07:15:26;609.47;;;583.63;;
17197;SDS011;8715;51.010;6.812;2024-01-07T07:18:12;615.55;;;589.50;;
17197;SDS011;8715;51.010;6.812;2024-01-07T07:20:57;614.38;;;588.92;;
17197;SDS011;8715;51.010;6.812;2024-01-07T07:23:43;611.53;;;585.95;;
17197;SDS011;8715;51.010;6.812;2024-01-07T07:26:28;620.67;;;594.75;;
17197;SDS011;8715;51.010;6.812;2024-01-07T07:29:13;630.53;;;604.38;;
17197;SDS011;8715;51.010;6.812;2024-01-07T07:31:58;620.13;;;594.25;;
17197;SDS011;8715;51.010;6.812;2024-01-07T07:34:43;622.80;;;596.38;;
17197;SDS011;8715;51.010;6.812;2024-01-07T07:37:28;613.83;;;588.15;;
17197;SDS011;8715;51.010;6.812;2024-01-07T07:40:15;579.25;;;555.00;;
17197;SDS011;8715;51.010;6.812;2024-01-07T07:43:00;614.47;;;588.63;;
17197;SDS011;8715;51.010;6.812;2024-01-07T07:45:44;615.42;;;589.70;;
17197;SDS011;8715;51.010;6.812;2024-01-07T07:48:30;622.63;;;597.00;;
17197;SDS011;8715;51.010;6.812;2024-01-07T07:51:14;603.25;;;578.33;;
17197;SDS011;8715;51.010;6.812;2024-01-07T07:54:00;619.50;;;593.85;;
17197;SDS011;8715;51.010;6.812;2024-01-07T07:56:46;613.10;;;587.38;;
17197;SDS011;8715;51.010;6.812;2024-01-07T07:59:31;616.97;;;591.33;;
17197;SDS011;8715;51.010;6.812;2024-01-07T08:02:16;610.22;;;584.97;;
17197;SDS011;8715;51.010;6.812;2024-01-07T08:05:01;617.63;;;591.38;;
17197;SDS011;8715;51.010;6.812;2024-01-07T08:07:47;610.88;;;585.25;;
17197;SDS011;8715;51.010;6.812;2024-01-07T08:10:32;592.85;;;568.30;;
17197;SDS011;8715;51.010;6.812;2024-01-07T08:13:20;632.33;;;605.85;;
17197;SDS011;8715;51.010;6.812;2024-01-07T08:16:05;623.15;;;597.17;;
17197;SDS011;8715;51.010;6.812;2024-01-07T08:18:50;615.67;;;589.55;;
17197;SDS011;8715;51.010;6.812;2024-01-07T08:21:35;609.67;;;583.80;;
17197;SDS011;8715;51.010;6.812;2024-01-07T08:24:20;613.08;;;587.53;;
17197;SDS011;8715;51.010;6.812;2024-01-07T08:27:05;620.30;;;594.25;;
17197;SDS011;8715;51.010;6.812;2024-01-07T08:29:52;618.35;;;592.20;;
17197;SDS011;8715;51.010;6.812;2024-01-07T08:32:37;618.22;;;592.40;;
17197;SDS011;8715;51.010;6.812;2024-01-07T08:35:22;583.53;;;559.03;;
17197;SDS011;8715;51.010;6.812;2024-01-07T08:38:07;619.03;;;593.30;;
17197;SDS011;8715;51.010;6.812;2024-01-07T08:40:52;617.42;;;591.83;;
17197;SDS011;8715;51.010;6.812;2024-01-07T08:43:37;628.60;;;602.53;;
17197;SDS011;8715;51.010;6.812;2024-01-07T08:46:24;615.70;;;590.20;;
17197;SDS011;8715;51.010;6.812;2024-01-07T08:49:09;609.85;;;584.03;;
17197;SDS011;8715;51.010;6.812;2024-01-07T08:51:54;602.63;;;577.45;;
17197;SDS011;8715;51.010;6.812;2024-01-07T08:54:39;605.03;;;580.13;;
17197;SDS011;8715;51.010;6.812;2024-01-07T08:57:24;564.95;;;541.05;;
17197;SDS011;8715;51.010;6.812;2024-01-07T09:00:10;624.65;;;598.65;;
17197;SDS011;8715;51.010;6.812;2024-01-07T09:02:56;628.38;;;601.78;;
17197;SDS011;8715;51.010;6.812;2024-01-07T09:05:42;612.67;;;587.60;;
17197;SDS011;8715;51.010;6.812;2024-01-07T09:08:27;600.58;;;575.90;;
17197;SDS011;8715;51.010;6.812;2024-01-07T09:11:12;617.92;;;592.85;;
17197;SDS011;8715;51.010;6.812;2024-01-07T09:13:57;622.60;;;596.78;;
17197;SDS011;8715;51.010;6.812;2024-01-07T09:16:43;621.28;;;595.38;;
17197;SDS011;8715;51.010;6.812;2024-01-07T09:19:29;612.47;;;587.08;;
17197;SDS011;8715;51.010;6.812;2024-01-07T09:22:14;604.00;;;579.08;;
17197;SDS011;8715;51.010;6.812;2024-01-07T09:25:00;613.60;;;588.40;;
17197;SDS011;8715;51.010;6.812;2024-01-07T09:27:45;612.83;;;587.08;;
17197;SDS011;8715;51.010;6.812;2024-01-07T09:30:30;622.25;;;595.85;;
17197;SDS011;8715;51.010;6.812;2024-01-07T09:33:15;611.67;;;585.53;;
17197;SDS011;8715;51.010;6.812;2024-01-07T09:36:01;544.67;;;521.45;;
17197;SDS011;8715;51.010;6.812;2024-01-07T09:38:46;605.35;;;580.40;;
17197;SDS011;8715;51.010;6.812;2024-01-07T09:41:31;596.83;;;572.38;;
17197;SDS011;8715;51.010;6.812;2024-01-07T09:44:17;596.28;;;571.40;;
17197;SDS011;8715;51.010;6.812;2024-01-07T09:47:03;603.63;;;578.03;;
17197;SDS011;8715;51.010;6.812;2024-01-07T09:49:49;596.78;;;572.03;;
17197;SDS011;8715;51.010;6.812;2024-01-07T09:52:35;609.08;;;583.95;;
17197;SDS011;8715;51.010;6.812;2024-01-07T09:55:22;606.55;;;582.25;;
17197;SDS011;8715;51.010;6.812;2024-01-07T09:58:10;610.60;;;585.65;;
17197;SDS011;8715;51.010;6.812;2024-01-07T10:00:55;612.28;;;586.95;;
17197;SDS011;8715;51.010;6.812;2024-01-07T10:03:40;589.97;;;566.15;;
17197;SDS011;8715;51.010;6.812;2024-01-07T10:06:25;608.63;;;583.85;;
17197;SDS011;8715;51.010;6.812;2024-01-07T10:09:13;595.55;;;571.38;;
17197;SDS011;8715;51.010;6.812;2024-01-07T10:11:58;610.00;;;585.45;;
17197;SDS011;8715;51.010;6.812;2024-01-07T10:14:43;588.90;;;565.17;;
17197;SDS011;8715;51.010;6.812;2024-01-07T10:17:28;595.72;;;571.63;;
17197;SDS011;8715;51.010;6.812;2024-01-07T10:20:13;553.70;;;531.25;;
17197;SDS011;8715;51.010;6.812;2024-01-07T10:22:58;602.63;;;578.17;;
17197;SDS011;8715;51.010;6.812;2024-01-07T10:25:44;606.15;;;581.70;;
17197;SDS011;8715;51.010;6.812;2024-01-07T10:28:30;600.28;;;576.00;;
17197;SDS011;8715;51.010;6.812;2024-01-07T10:31:15;620.38;;;595.33;;
17197;SDS011;8715;51.010;6.812;2024-01-07T10:34:01;598.30;;;574.33;;
17197;SDS011;8715;51.010;6.812;2024-01-07T10:36:46;538.20;;;516.00;;
17197;SDS011;8715;51.010;6.812;2024-01-07T10:39:32;602.42;;;577.95;;
17197;SDS011;8715;51.010;6.812;2024-01-07T10:42:18;593.83;;;569.78;;
17197;SDS011;8715;51.010;6.812;2024-01-07T10:45:04;604.70;;;580.08;;
17197;SDS011;8715;51.010;6.812;2024-01-07T10:47:49;552.88;;;530.33;;
17197;SDS011;8715;51.010;6.812;2024-01-07T10:50:35;574.70;;;551.22;;
17197;SDS011;8715;51.010;6.812;2024-01-07T10:53:21;609.67;;;584.95;;
17197;SDS011;8715;51.010;6.812;2024-01-07T10:56:08;599.75;;;575.70;;
17197;SDS011;8715;51.010;6.812;2024-01-07T10:58:56;597.53;;;572.80;;
17197;SDS011;8715;51.010;6.812;2024-01-07T11:01:41;601.35;;;577.10;;
17197;SDS011;8715;51.010;6.812;2024-01-07T11:04:29;604.40;;;579.72;;
17197;SDS011;8715;51.010;6.812;2024-01-07T11:07:18;584.35;;;560.65;;
17197;SDS011;8715;51.010;6.812;2024-01-07T11:10:05;553.00;;;530.55;;
17197;SDS011;8715;51.010;6.812;2024-01-07T11:12:55;558.45;;;535.35;;
17197;SDS011;8715;51.010;6.812;2024-01-07T11:15:51;593.88;;;569.97;;
17197;SDS011;8715;51.010;6.812;2024-01-07T11:18:38;601.00;;;576.50;;
17197;SDS011;8715;51.010;6.812;2024-01-07T11:21:23;595.17;;;571.10;;
17197;SDS011;8715;51.010;6.812;2024-01-07T11:24:09;597.22;;;572.55;;
17197;SDS011;8715;51.010;6.812;2024-01-07T11:26:55;601.45;;;576.85;;
17197;SDS011;8715;51.010;6.812;2024-01-07T11:29:52;531.75;;;510.10;;
17197;SDS011;8715;51.010;6.812;2024-01-07T11:32:39;593.20;;;569.17;;
17197;SDS011;8715;51.010;6.812;2024-01-07T11:38:24;603.33;;;579.03;;
17197;SDS011;8715;51.010;6.812;2024-01-07T11:41:09;601.97;;;577.35;;
17197;SDS011;8715;51.010;6.812;2024-01-07T11:43:56;593.58;;;569.55;;
17197;SDS011;8715;51.010;6.812;2024-01-07T11:46:43;599.30;;;575.10;;
17197;SDS011;8715;51.010;6.812;2024-01-07T11:49:29;584.00;;;560.35;;
17197;SDS011;8715;51.010;6.812;2024-01-07T11:52:14;601.97;;;577.78;;
17197;SDS011;8715;51.010;6.812;2024-01-07T11:54:59;600.95;;;576.70;;
17197;SDS011;8715;51.010;6.812;2024-01-07T11:57:44;595.17;;;570.90;;
17197;SDS011;8715;51.010;6.812;2024-01-07T12:00:30;581.03;;;557.42;;
17197;SDS011;8715;51.010;6.812;2024-01-07T12:03:15;585.17;;;561.75;;
17197;SDS011;8715;51.010;6.812;2024-01-07T12:06:02;600.13;;;576.15;;
17197;SDS011;8715;51.010;6.812;2024-01-07T12:08:47;589.97;;;565.97;;
17197;SDS011;8715;51.010;6.812;2024-01-07T12:11:32;541.60;;;519.03;;
17197;SDS011;8715;51.010;6.812;2024-01-07T12:14:18;603.03;;;578.97;;
17197;SDS011;8715;51.010;6.812;2024-01-07T12:17:03;599.70;;;575.80;;
17197;SDS011;8715;51.010;6.812;2024-01-07T12:19:49;596.55;;;572.50;;
17197;SDS011;8715;51.010;6.812;2024-01-07T12:22:38;592.92;;;569.22;;
17197;SDS011;8715;51.010;6.812;2024-01-07T12:25:24;591.00;;;567.28;;
17197;SDS011;8715;51.010;6.812;2024-01-07T12:28:09;604.03;;;579.85;;
17197;SDS011;8715;51.010;6.812;2024-01-07T12:30:54;601.58;;;577.67;;
17197;SDS011;8715;51.010;6.812;2024-01-07T12:33:40;594.60;;;570.72;;
17197;SDS011;8715;51.010;6.812;2024-01-07T12:36:25;594.70;;;570.72;;
17197;SDS011;8715;51.010;6.812;2024-01-07T12:39:12;543.50;;;521.65;;
17197;SDS011;8715;51.010;6.812;2024-01-07T12:41:57;611.33;;;587.08;;
17197;SDS011;8715;51.010;6.812;2024-01-07T12:44:42;590.65;;;566.47;;
17197;SDS011;8715;51.010;6.812;2024-01-07T12:47:27;597.60;;;573.80;;
17197;SDS011;8715;51.010;6.812;2024-01-07T12:50:13;603.42;;;579.47;;
17197;SDS011;8715;51.010;6.812;2024-01-07T12:52:59;600.13;;;576.15;;
17197;SDS011;8715;51.010;6.812;2024-01-07T12:55:45;585.78;;;562.42;;
17197;SDS011;8715;51.010;6.812;2024-01-07T12:58:30;601.63;;;577.65;;
17197;SDS011;8715;51.010;6.812;2024-01-07T13:01:15;603.92;;;579.45;;
17197;SDS011;8715;51.010;6.812;2024-01-07T13:04:00;598.78;;;574.60;;
17197;SDS011;8715;51.010;6.812;2024-01-07T13:06:46;587.85;;;564.22;;
17197;SDS011;8715;51.010;6.812;2024-01-07T13:09:31;561.92;;;539.35;;
17197;SDS011;8715;51.010;6.812;2024-01-07T13:12:17;534.08;;;512.67;;
17197;SDS011;8715;51.010;6.812;2024-01-07T13:15:02;599.85;;;576.00;;
17197;SDS011;8715;51.010;6.812;2024-01-07T13:17:48;596.35;;;572.55;;
17197;SDS011;8715;51.010;6.812;2024-01-07T13:20:33;573.03;;;550.42;;
17197;SDS011;8715;51.010;6.812;2024-01-07T13:23:19;591.17;;;567.72;;
17197;SDS011;8715;51.010;6.812;2024-01-07T13:26:04;578.83;;;555.63;;
17197;SDS011;8715;51.010;6.812;2024-01-07T13:28:51;586.35;;;563.30;;
17197;SDS011;8715;51.010;6.812;2024-01-07T13:31:37;542.10;;;520.55;;
17197;SDS011;8715;51.010;6.812;2024-01-07T13:34:22;540.42;;;518.70;;
17197;SDS011;8715;51.010;6.812;2024-01-07T13:37:07;605.85;;;581.85;;
17197;SDS011;8715;51.010;6.812;2024-01-07T13:39:52;575.17;;;551.88;;
17197;SDS011;8715;51.010;6.812;2024-01-07T13:42:37;599.55;;;575.60;;
17197;SDS011;8715;51.010;6.812;2024-01-07T13:45:23;583.33;;;560.10;;
17197;SDS011;8715;51.010;6.812;2024-01-07T13:48:09;592.40;;;568.35;;
17197;SDS011;8715;51.010;6.812;2024-01-07T13:50:54;585.88;;;562.47;;
17197;SDS011;8715;51.010;6.812;2024-01-07T13:53:39;538.10;;;516.55;;
17197;SDS011;8715;51.010;6.812;2024-01-07T13:56:24;577.90;;;555.08;;
17197;SDS011;8715;51.010;6.812;2024-01-07T13:59:09;548.67;;;526.88;;
17197;SDS011;8715;51.010;6.812;2024-01-07T14:01:56;593.05;;;569.75;;
17197;SDS011;8715;51.010;6.812;2024-01-07T14:04:42;584.17;;;560.78;;
17197;SDS011;8715;51.010;6.812;2024-01-07T14:07:27;604.15;;;580.30;;
17197;SDS011;8715;51.010;6.812;2024-01-07T14:10:12;583.75;;;560.22;;
17197;SDS011;8715;51.010;6.812;2024-01-07T14:12:57;583.78;;;560.85;;
17197;SDS011;8715;51.010;6.812;2024-01-07T14:15:42;593.55;;;570.17;;
17197;SDS011;8715;51.010;6.812;2024-01-07T14:18:28;556.55;;;534.60;;
17197;SDS011;8715;51.010;6.812;2024-01-07T14:21:14;579.65;;;555.83;;
17197;SDS011;8715;51.010;6.812;2024-01-07T14:23:59;534.70;;;513.35;;
17197;SDS011;8715;51.010;6.812;2024-01-07T14:26:43;564.53;;;541.88;;
17197;SDS011;8715;51.010;6.812;2024-01-07T14:29:29;575.03;;;551.90;;
17197;SDS011;8715;51.010;6.812;2024-01-07T14:32:14;566.70;;;544.17;;
17197;SDS011;8715;51.010;6.812;2024-01-07T14:35:00;600.45;;;576.42;;
17197;SDS011;8715;51.010;6.812;2024-01-07T14:37:46;582.42;;;559.53;;
17197;SDS011;8715;51.010;6.812;2024-01-07T14:40:31;580.22;;;557.38;;
17197;SDS011;8715;51.010;6.812;2024-01-07T14:43:16;588.55;;;565.10;;
17197;SDS011;8715;51.010;6.812;2024-01-07T14:46:02;573.97;;;551.40;;
17197;SDS011;8715;51.010;6.812;2024-01-07T14:48:47;580.95;;;557.88;;
17197;SDS011;8715;51.010;6.812;2024-01-07T14:51:36;562.75;;;540.53;;
17197;SDS011;8715;51.010;6.812;2024-01-07T14:54:21;558.85;;;536.42;;
17197;SDS011;8715;51.010;6.812;2024-01-07T14:57:06;588.17;;;564.38;;
17197;SDS011;8715;51.010;6.812;2024-01-07T14:59:53;590.22;;;566.95;;
17197;SDS011;8715;51.010;6.812;2024-01-07T15:02:37;570.60;;;548.22;;
17197;SDS011;8715;51.010;6.812;2024-01-07T15:05:23;566.33;;;543.97;;
17197;SDS011;8715;51.010;6.812;2024-01-07T15:08:09;588.50;;;565.53;;
17197;SDS011;8715;51.010;6.812;2024-01-07T15:10:56;538.63;;;517.13;;
17197;SDS011;8715;51.010;6.812;2024-01-07T15:13:42;570.90;;;548.40;;
17197;SDS011;8715;51.010;6.812;2024-01-07T15:16:27;582.10;;;558.97;;
17197;SDS011;8715;51.010;6.812;2024-01-07T15:19:12;573.25;;;550.78;;
17197;SDS011;8715;51.010;6.812;2024-01-07T15:21:57;592.55;;;569.22;;
17197;SDS011;8715;51.010;6.812;2024-01-07T15:24:44;576.42;;;554.10;;
17197;SDS011;8715;51.010;6.812;2024-01-07T15:27:28;566.47;;;544.03;;
17197;SDS011;8715;51.010;6.812;2024-01-07T15:30:14;556.15;;;534.40;;
17197;SDS011;8715;51.010;6.812;2024-01-07T15:33:00;567.17;;;544.80;;
17197;SDS011;8715;51.010;6.812;2024-01-07T15:35:45;564.13;;;542.22;;
17197;SDS011;8715;51.010;6.812;2024-01-07T15:38:30;596.63;;;572.97;;
17197;SDS011;8715;51.010;6.812;2024-01-07T15:41:16;584.13;;;561.17;;
17197;SDS011;8715;51.010;6.812;2024-01-07T15:44:01;589.72;;;565.33;;
17197;SDS011;8715;51.010;6.812;2024-01-07T15:46:46;584.17;;;561.05;;
17197;SDS011;8715;51.010;6.812;2024-01-07T15:49:31;569.60;;;547.13;;
17197;SDS011;8715;51.010;6.812;2024-01-07T15:52:16;565.70;;;543.38;;
17197;SDS011;8715;51.010;6.812;2024-01-07T15:55:01;570.20;;;547.90;;
17197;SDS011;8715;51.010;6.812;2024-01-07T15:57:48;563.83;;;541.60;;